createdAt,value
2019-02-17T00:02:12.274Z,101605.92
2019-02-17T00:04:36.687Z,101610.07
2019-02-17T00:07:01.119Z,101608.69
2019-02-17T00:09:25.524Z,101606.20
2019-02-17T00:11:49.977Z,101611.98
2019-02-17T00:14:14.457Z,101612.62
2019-02-17T00:16:38.976Z,101614.39
2019-02-17T00:19:03.394Z,101617.09
2019-02-17T00:21:27.833Z,101612.98
2019-02-17T00:23:52.240Z,101609.34
2019-02-17T00:26:16.690Z,101614.89
2019-02-17T00:28:41.113Z,101610.59
2019-02-17T00:31:05.677Z,101613.91
2019-02-17T00:33:30.127Z,101605.89
2019-02-17T00:35:54.538Z,101610.38
2019-02-17T00:38:18.991Z,101613.89
2019-02-17T00:40:43.571Z,101612.77
2019-02-17T00:43:08.011Z,101616.27
2019-02-17T00:45:32.494Z,101618.50
2019-02-17T00:47:56.903Z,101613.49
2019-02-17T00:50:21.342Z,101618.22
2019-02-17T00:52:45.759Z,101612.77
2019-02-17T00:55:10.334Z,101617.35
2019-02-17T00:57:34.752Z,101621.23
2019-02-17T00:59:59.193Z,101625.14
2019-02-17T01:02:23.606Z,101620.91
2019-02-17T01:04:48.108Z,101616.22
2019-02-17T01:07:12.524Z,101614.69
2019-02-17T01:09:36.956Z,101623.14
2019-02-17T01:12:01.451Z,101629.87
2019-02-17T01:14:25.984Z,101621.55
2019-02-17T01:16:50.398Z,101623.67
2019-02-17T01:19:14.817Z,101623.73
2019-02-17T01:21:39.266Z,101620.14
2019-02-17T01:24:03.676Z,101622.34
2019-02-17T01:26:28.142Z,101623.73
2019-02-17T01:28:52.552Z,101620.36
2019-02-17T01:31:16.987Z,101622.94
2019-02-17T01:33:41.399Z,101614.48
2019-02-17T01:36:05.985Z,101621.62
2019-02-17T01:38:30.413Z,101620.22
2019-02-17T01:40:54.830Z,101613.28
2019-02-17T01:43:19.337Z,101611.31
2019-02-17T01:45:43.751Z,101610.70
2019-02-17T01:48:08.183Z,101615.33
2019-02-17T01:50:32.592Z,101615.11
2019-02-17T01:52:57.030Z,101619.63
2019-02-17T01:55:22.024Z,101617.88
2019-02-17T01:57:46.457Z,101616.83
2019-02-17T02:00:13.890Z,101612.87
2019-02-17T02:02:38.344Z,101605.97
2019-02-17T02:05:02.758Z,101604.28
2019-02-17T02:07:27.274Z,101602.12
2019-02-17T02:09:51.694Z,101608.30
2019-02-17T02:12:16.219Z,101610.59
2019-02-17T02:14:40.777Z,101605.81
2019-02-17T02:17:05.265Z,101603.23
2019-02-17T02:19:29.692Z,101608.72
2019-02-17T02:21:54.100Z,101606.30
2019-02-17T02:24:18.542Z,101607.49
2019-02-17T02:26:42.960Z,101605.13
2019-02-17T02:29:07.401Z,101598.77
2019-02-17T02:31:31.813Z,101591.22
2019-02-17T02:33:56.257Z,101591.47
2019-02-17T02:36:20.679Z,101594.73
2019-02-17T02:38:45.093Z,101586.39
2019-02-17T02:41:09.524Z,101589.15
2019-02-17T02:43:33.935Z,101588.93
2019-02-17T02:45:58.370Z,101585.19
2019-02-17T02:48:22.854Z,101591.66
2019-02-17T02:50:47.273Z,101590.73
2019-02-17T02:53:11.686Z,101589.09
2019-02-17T02:55:36.116Z,101592.17
2019-02-17T02:58:00.553Z,101591.91
2019-02-17T03:00:25.025Z,101589.86
2019-02-17T03:02:49.467Z,101590.44
2019-02-17T03:05:13.961Z,101590.34
2019-02-17T03:07:38.469Z,101588.42
2019-02-17T03:10:02.951Z,101591.76
2019-02-17T03:12:27.365Z,101591.76
2019-02-17T03:14:51.780Z,101587.94
2019-02-17T03:17:16.237Z,101586.96
2019-02-17T03:19:40.640Z,101592.97
2019-02-17T03:22:05.147Z,101588.38
2019-02-17T03:24:29.558Z,101591.23
2019-02-17T03:26:54.001Z,101589.94
2019-02-17T03:29:18.407Z,101594.57
2019-02-17T03:31:42.821Z,101589.77
2019-02-17T03:34:07.254Z,101594.52
2019-02-17T03:36:31.663Z,101588.95
2019-02-17T03:38:56.108Z,101591.84
2019-02-17T03:41:20.519Z,101589.04
2019-02-17T03:43:44.961Z,101596.55
2019-02-17T03:46:09.377Z,101597.02
2019-02-17T03:48:33.809Z,101588.41
2019-02-17T03:50:58.224Z,101589.31
2019-02-17T03:53:22.659Z,101592.67
2019-02-17T03:55:47.076Z,101591.81
2019-02-17T03:58:11.570Z,101587.39
2019-02-17T04:00:36.000Z,101576.00
2019-02-17T04:03:00.483Z,101576.00
2019-02-17T04:05:24.917Z,101574.97
2019-02-17T04:07:49.315Z,101569.81
2019-02-17T04:10:13.938Z,101575.95
2019-02-17T04:12:38.335Z,101577.55
2019-02-17T04:15:02.785Z,101577.16
2019-02-17T04:17:27.273Z,101574.27
2019-02-17T04:19:51.722Z,101580.30
2019-02-17T04:22:16.150Z,101577.50
2019-02-17T04:24:40.628Z,101581.41
2019-02-17T04:27:05.147Z,101573.83
2019-02-17T04:29:29.558Z,101579.28
2019-02-17T04:31:54.001Z,101577.85
2019-02-17T04:34:18.414Z,101576.87
2019-02-17T04:36:42.855Z,101575.88
2019-02-17T04:39:07.256Z,101572.39
2019-02-17T04:41:31.692Z,101567.91
2019-02-17T04:43:56.103Z,101562.22
2019-02-17T04:46:20.517Z,101562.75
2019-02-17T04:48:44.939Z,101562.45
2019-02-17T04:51:09.419Z,101563.20
2019-02-17T04:53:33.846Z,101563.48
2019-02-17T04:55:58.259Z,101553.70
2019-02-17T04:58:22.700Z,101554.59
2019-02-17T05:00:47.115Z,101556.02
2019-02-17T05:03:11.559Z,101555.95
2019-02-17T05:05:35.955Z,101559.79
2019-02-17T05:08:00.387Z,101552.80
2019-02-17T05:10:24.793Z,101551.98
2019-02-17T05:12:49.201Z,101556.28
2019-02-17T05:15:13.707Z,101554.47
2019-02-17T05:17:38.120Z,101561.70
2019-02-17T05:20:02.557Z,101565.20
2019-02-17T05:22:26.967Z,101566.14
2019-02-17T05:24:51.379Z,101562.83
2019-02-17T05:27:15.802Z,101570.52
2019-02-17T05:29:40.218Z,101573.36
2019-02-17T05:32:04.794Z,101573.30
2019-02-17T05:34:29.207Z,101578.20
2019-02-17T05:36:53.648Z,101573.91
2019-02-17T05:39:18.055Z,101567.28
2019-02-17T05:41:42.491Z,101573.34
2019-02-17T05:44:06.912Z,101576.36
2019-02-17T05:46:31.342Z,101572.44
2019-02-17T05:48:55.753Z,101568.52
2019-02-17T05:51:20.204Z,101579.69
2019-02-17T05:53:44.599Z,101573.44
2019-02-17T05:56:09.000Z,101571.38
2019-02-17T05:58:33.445Z,101570.62
2019-02-17T06:01:03.694Z,101572.08
2019-02-17T06:03:23.977Z,101576.00
2019-02-17T06:05:48.380Z,101574.17
2019-02-17T06:08:12.814Z,101576.61
2019-02-17T06:10:37.248Z,101571.23
2019-02-17T06:13:01.677Z,101571.70
2019-02-17T06:15:26.086Z,101578.94
2019-02-17T06:17:50.515Z,101576.83
2019-02-17T06:20:14.918Z,101577.24
2019-02-17T06:22:39.354Z,101570.27
2019-02-17T06:25:03.831Z,101573.25
2019-02-17T06:27:28.235Z,101574.05
2019-02-17T06:29:52.682Z,101583.44
2019-02-17T06:32:17.092Z,101583.39
2019-02-17T06:34:41.520Z,101585.91
2019-02-17T06:37:05.931Z,101588.66
2019-02-17T06:39:30.372Z,101579.53
2019-02-17T06:41:54.782Z,101589.00
2019-02-17T06:44:19.226Z,101589.73
2019-02-17T06:46:45.279Z,101597.27
2019-02-17T06:49:09.694Z,101594.39
2019-02-17T06:51:34.119Z,101598.64
2019-02-17T06:53:58.532Z,101598.89
2019-02-17T06:56:27.545Z,101601.27
2019-02-17T06:58:51.950Z,101598.06
2019-02-17T07:01:24.420Z,101590.59
2019-02-17T07:03:42.558Z,101594.48
2019-02-17T07:06:11.421Z,101595.05
2019-02-17T07:08:35.833Z,101593.97
2019-02-17T07:11:00.277Z,101596.79
2019-02-17T07:13:24.687Z,101592.63
2019-02-17T07:15:49.141Z,101600.87
2019-02-17T07:18:13.576Z,101594.66
2019-02-17T07:20:37.978Z,101594.12
2019-02-17T07:23:02.424Z,101588.79
2019-02-17T07:25:29.945Z,101584.41
2019-02-17T07:27:52.975Z,101586.45
2019-02-17T07:30:17.389Z,101590.94
2019-02-17T07:32:41.830Z,101597.09
2019-02-17T07:35:07.179Z,101591.45
2019-02-17T07:37:33.726Z,101596.95
2019-02-17T07:39:57.732Z,101596.28
2019-02-17T07:42:22.171Z,101598.96
2019-02-17T07:44:46.587Z,101592.23
2019-02-17T07:47:11.018Z,101594.04
2019-02-17T07:49:35.429Z,101588.33
2019-02-17T07:51:59.836Z,101588.25
2019-02-17T07:54:24.280Z,101596.40
2019-02-17T07:56:48.707Z,101590.95
2019-02-17T07:59:13.117Z,101592.25
2019-02-17T08:01:45.100Z,101597.81
2019-02-17T08:04:03.665Z,101591.51
2019-02-17T08:06:28.076Z,101592.94
2019-02-17T08:08:52.518Z,101581.94
2019-02-17T08:11:16.926Z,101592.64
2019-02-17T08:13:41.358Z,101590.70
2019-02-17T08:16:05.777Z,101590.23
2019-02-17T08:18:30.195Z,101588.92
2019-02-17T08:20:54.668Z,101586.88
2019-02-17T08:23:19.040Z,101588.02
2019-02-17T08:25:43.490Z,101580.84
2019-02-17T08:28:07.913Z,101571.86
2019-02-17T08:30:32.346Z,101572.63
2019-02-17T08:32:56.750Z,101569.16
2019-02-17T08:35:21.204Z,101568.36
2019-02-17T08:37:45.656Z,101564.41
2019-02-17T08:40:10.902Z,101559.61
2019-02-17T08:42:35.379Z,101566.52
2019-02-17T08:44:59.859Z,101565.09
2019-02-17T08:47:24.373Z,101565.15
2019-02-17T08:49:48.757Z,101566.39
2019-02-17T08:52:13.199Z,101557.55
2019-02-17T08:54:37.616Z,101556.53
2019-02-17T08:57:02.082Z,101550.89
2019-02-17T08:59:26.480Z,101555.83
2019-02-17T09:01:50.957Z,101550.36
2019-02-17T09:04:15.438Z,101546.62
2019-02-17T09:06:39.887Z,101547.44
2019-02-17T09:09:05.718Z,101544.46
2019-02-17T09:11:30.152Z,101548.02
2019-02-17T09:13:54.555Z,101540.69
2019-02-17T09:16:18.996Z,101539.70
2019-02-17T09:18:43.435Z,101536.54
2019-02-17T09:21:07.852Z,101538.11
2019-02-17T09:23:32.309Z,101541.02
2019-02-17T09:25:56.722Z,101537.23
2019-02-17T09:28:21.242Z,101535.98
2019-02-17T09:30:45.659Z,101534.95
2019-02-17T09:33:10.091Z,101528.81
2019-02-17T09:35:34.536Z,101525.03
2019-02-17T09:37:58.979Z,101528.77
2019-02-17T09:40:23.470Z,101526.06
2019-02-17T09:42:47.960Z,101531.80
2019-02-17T09:45:16.339Z,101530.88
2019-02-17T09:47:40.747Z,101534.20
2019-02-17T09:50:09.401Z,101529.16
2019-02-17T09:52:33.815Z,101532.21
2019-02-17T09:54:58.287Z,101533.25
2019-02-17T09:57:22.743Z,101527.24
2019-02-17T09:59:47.154Z,101527.81
2019-02-17T10:02:11.625Z,101525.37
2019-02-17T10:04:36.047Z,101531.22
2019-02-17T10:07:00.463Z,101535.27
2019-02-17T10:09:24.906Z,101534.78
2019-02-17T10:11:49.343Z,101535.39
2019-02-17T10:14:13.816Z,101531.20
2019-02-17T10:16:38.311Z,101536.60
2019-02-17T10:19:02.802Z,101534.26
2019-02-17T10:21:27.243Z,101535.68
2019-02-17T10:23:51.662Z,101535.68
2019-02-17T10:26:16.141Z,101535.41
2019-02-17T10:28:42.532Z,101529.78
2019-02-17T10:31:06.777Z,101526.48
2019-02-17T10:33:31.200Z,101522.44
2019-02-17T10:35:55.664Z,101518.83
2019-02-17T10:38:20.092Z,101512.66
2019-02-17T10:40:44.546Z,101508.37
2019-02-17T10:43:08.972Z,101507.58
2019-02-17T10:45:33.479Z,101504.06
2019-02-17T10:47:57.907Z,101504.22
2019-02-17T10:50:22.371Z,101494.16
2019-02-17T10:52:47.030Z,101495.47
2019-02-17T10:55:12.927Z,101492.45
2019-02-17T10:57:37.440Z,101491.13
2019-02-17T11:00:01.897Z,101489.33
2019-02-17T11:02:27.888Z,101463.22
2019-02-17T11:04:52.377Z,101479.78
2019-02-17T11:07:16.909Z,101475.46
2019-02-17T11:09:41.387Z,101470.42
2019-02-17T11:12:05.915Z,101468.86
2019-02-17T11:14:30.326Z,101470.15
2019-02-17T11:16:54.764Z,101458.52
2019-02-17T11:19:19.257Z,101452.00
2019-02-17T11:21:43.710Z,101404.94
2019-02-17T11:24:08.273Z,101439.77
2019-02-17T11:26:32.724Z,101435.77
2019-02-17T11:28:57.252Z,101436.63
2019-02-17T11:31:21.675Z,101431.19
2019-02-17T11:33:46.190Z,101424.70
2019-02-17T11:36:10.764Z,101430.25
2019-02-17T11:38:35.212Z,101423.37
2019-02-17T11:40:59.633Z,101418.52
2019-02-17T11:43:24.091Z,101411.53
2019-02-17T11:45:48.647Z,101406.51
2019-02-17T11:48:13.171Z,101400.32
2019-02-17T11:50:37.601Z,101406.05
2019-02-17T11:53:02.031Z,101398.37
2019-02-17T11:55:26.469Z,101395.59
2019-02-17T11:57:50.974Z,101399.72
2019-02-17T12:00:22.263Z,101400.47
2019-02-17T12:02:46.789Z,101393.88
2019-02-17T12:05:11.756Z,101385.88
2019-02-17T12:07:36.168Z,101383.06
2019-02-17T12:10:00.617Z,101382.26
2019-02-17T12:12:25.037Z,101371.95
2019-02-17T12:14:49.496Z,101375.80
2019-02-17T12:17:13.900Z,101375.41
2019-02-17T12:19:38.359Z,101376.02
2019-02-17T12:22:04.439Z,101367.52
2019-02-17T12:24:30.549Z,101362.13
2019-02-17T12:27:11.740Z,101361.28
2019-02-17T12:29:38.479Z,101355.77
2019-02-17T12:32:03.021Z,101356.85
2019-02-17T12:34:27.459Z,101353.45
2019-02-17T12:36:51.915Z,101349.80
2019-02-17T12:39:16.342Z,101349.48
2019-02-17T12:41:40.782Z,101338.23
2019-02-17T12:44:05.211Z,101337.98
2019-02-17T12:46:29.652Z,101331.23
2019-02-17T12:48:54.065Z,101330.39
2019-02-17T12:51:18.504Z,101328.05
2019-02-17T12:53:42.936Z,101332.07
2019-02-17T12:56:07.392Z,101324.78
2019-02-17T12:58:31.806Z,101321.35
2019-02-17T13:00:56.259Z,101321.20
2019-02-17T13:03:28.234Z,101323.17
2019-02-17T13:05:47.031Z,101319.97
2019-02-17T13:08:11.491Z,101315.41
2019-02-17T13:10:35.942Z,101316.39
2019-02-17T13:13:00.365Z,101316.50
2019-02-17T13:15:24.784Z,101306.23
2019-02-17T13:17:49.312Z,101313.31
2019-02-17T13:20:15.271Z,101298.36
2019-02-17T13:22:39.804Z,101294.95
2019-02-17T13:25:05.069Z,101297.66
2019-02-17T13:27:29.532Z,101295.11
2019-02-17T13:29:53.954Z,101293.12
2019-02-17T13:32:18.499Z,101286.16
2019-02-17T13:34:42.931Z,101287.52
2019-02-17T13:37:07.380Z,101277.34
2019-02-17T13:39:31.820Z,101280.92
2019-02-17T13:41:56.353Z,101284.96
2019-02-17T13:44:20.779Z,101281.34
2019-02-17T13:46:45.242Z,101275.37
2019-02-17T13:49:09.679Z,101269.17
2019-02-17T13:51:34.161Z,101277.48
2019-02-17T13:53:58.774Z,101268.65
2019-02-17T13:56:23.269Z,101268.70
2019-02-17T13:58:47.739Z,101264.78
2019-02-17T14:01:12.167Z,101260.93
2019-02-17T14:03:36.623Z,101261.49
2019-02-17T14:06:01.019Z,101259.52
2019-02-17T14:08:25.471Z,101260.47
2019-02-17T14:10:49.901Z,101253.89
2019-02-17T14:13:14.355Z,101236.87
2019-02-17T14:15:38.769Z,101249.36
2019-02-17T14:18:03.188Z,101245.45
2019-02-17T14:20:27.631Z,101239.11
2019-02-17T14:22:52.056Z,101246.66
2019-02-17T14:25:16.522Z,101245.11
2019-02-17T14:27:41.015Z,101245.38
2019-02-17T14:30:08.838Z,101245.11
2019-02-17T14:32:33.256Z,101243.15
2019-02-17T14:34:57.679Z,101233.73
2019-02-17T14:37:22.095Z,101235.91
2019-02-17T14:39:46.633Z,101238.19
2019-02-17T14:42:11.053Z,101241.79
2019-02-17T14:44:35.513Z,101233.64
2019-02-17T14:46:59.915Z,101232.77
2019-02-17T14:49:24.409Z,101233.30
2019-02-17T14:51:48.853Z,101220.48
2019-02-17T14:54:13.363Z,101224.38
2019-02-17T14:56:37.866Z,101217.81
2019-02-17T14:59:02.589Z,101210.86
2019-02-17T15:01:27.087Z,101210.36
2019-02-17T15:03:51.511Z,101210.96
2019-02-17T15:06:15.947Z,101206.17
2019-02-17T15:08:40.359Z,101205.67
2019-02-17T15:11:04.798Z,101206.11
2019-02-17T15:13:29.221Z,101206.94
2019-02-17T15:15:53.689Z,101207.34
2019-02-17T15:18:18.107Z,101198.47
2019-02-17T15:20:42.907Z,101197.39
2019-02-17T15:23:07.336Z,101203.49
2019-02-17T15:25:31.925Z,101198.03
2019-02-17T15:27:56.356Z,101196.45
2019-02-17T15:30:20.869Z,101195.81
2019-02-17T15:32:45.284Z,101199.86
2019-02-17T15:35:09.956Z,101194.02
2019-02-17T15:37:34.390Z,101198.27
2019-02-17T15:39:58.807Z,101189.28
2019-02-17T15:42:23.346Z,101243.22
2019-02-17T15:44:48.003Z,101189.65
2019-02-17T15:47:12.399Z,101197.97
2019-02-17T15:49:36.808Z,101196.27
2019-02-17T15:52:01.268Z,101196.56
2019-02-17T15:54:25.967Z,101189.87
2019-02-17T15:56:50.405Z,101191.52
2019-02-17T15:59:14.900Z,101189.63
2019-02-17T16:01:39.329Z,101187.08
2019-02-17T16:04:03.782Z,101184.88
2019-02-17T16:06:28.206Z,101184.72
2019-02-17T16:08:52.662Z,101139.95
2019-02-17T16:11:17.085Z,101182.64
2019-02-17T16:13:41.536Z,101184.81
2019-02-17T16:16:06.120Z,101188.02
2019-02-17T16:18:30.572Z,101187.94
2019-02-17T16:20:55.016Z,101184.62
2019-02-17T16:23:19.504Z,101183.70
2019-02-17T16:25:44.210Z,101179.20
2019-02-17T16:28:09.030Z,101185.00
2019-02-17T16:30:33.482Z,101178.30
2019-02-17T16:32:57.914Z,101173.61
2019-02-17T16:35:22.354Z,101170.59
2019-02-17T16:37:46.856Z,101168.81
2019-02-17T16:40:13.894Z,101173.97
2019-02-17T16:42:38.311Z,101174.65
2019-02-17T16:45:02.870Z,101178.41
2019-02-17T16:47:28.029Z,101171.42
2019-02-17T16:49:52.487Z,101174.42
2019-02-17T16:52:16.917Z,101172.22
2019-02-17T16:54:41.358Z,101170.19
2019-02-17T16:57:05.854Z,101178.90
2019-02-17T16:59:30.321Z,101178.28
2019-02-17T17:01:54.752Z,101178.73
2019-02-17T17:04:19.245Z,101177.45
2019-02-17T17:06:43.722Z,101177.62
2019-02-17T17:09:08.880Z,101184.78
2019-02-17T17:11:33.355Z,101179.77
2019-02-17T17:13:57.789Z,101184.91
2019-02-17T17:16:22.394Z,101181.69
2019-02-17T17:18:47.036Z,101191.07
2019-02-17T17:21:11.493Z,101184.66
2019-02-17T17:23:35.920Z,101188.48
2019-02-17T17:26:00.466Z,101184.73
2019-02-17T17:28:25.907Z,101185.83
2019-02-17T17:30:50.441Z,101189.81
2019-02-17T17:33:14.884Z,101190.27
2019-02-17T17:35:39.387Z,101184.16
2019-02-17T17:38:03.929Z,101189.70
2019-02-17T17:40:28.437Z,101186.19
2019-02-17T17:42:52.906Z,101188.56
2019-02-17T17:45:22.307Z,101189.50
2019-02-17T17:47:46.764Z,101194.68
2019-02-17T17:50:15.424Z,101190.83
2019-02-17T17:52:39.940Z,101192.14
2019-02-17T17:55:05.206Z,101190.07
2019-02-17T17:57:29.673Z,101187.71
2019-02-17T17:59:54.117Z,101184.19
2019-02-17T18:02:18.750Z,101176.45
2019-02-17T18:04:43.310Z,101177.92
2019-02-17T18:07:07.772Z,101173.91
2019-02-17T18:09:32.202Z,101171.76
2019-02-17T18:11:56.753Z,101171.51
2019-02-17T18:14:21.270Z,101166.98
2019-02-17T18:16:45.699Z,101168.87
2019-02-17T18:19:10.172Z,101172.56
2019-02-17T18:21:34.598Z,101169.94
2019-02-17T18:23:59.080Z,101165.05
2019-02-17T18:26:23.599Z,101162.16
2019-02-17T18:28:48.050Z,101161.95
2019-02-17T18:31:12.616Z,101161.58
2019-02-17T18:33:37.076Z,101161.91
2019-02-17T18:36:01.644Z,101164.24
2019-02-17T18:38:26.095Z,101161.30
2019-02-17T18:40:50.516Z,101165.48
2019-02-17T18:43:15.041Z,101165.69
2019-02-17T18:45:39.475Z,101169.67
2019-02-17T18:48:04.059Z,101164.87
2019-02-17T18:50:28.626Z,101166.16
2019-02-17T18:52:53.058Z,101166.58
2019-02-17T18:55:17.585Z,101165.34
2019-02-17T18:57:49.485Z,101169.90
2019-02-17T19:00:25.714Z,101164.25
2019-02-17T19:02:50.206Z,101162.33
2019-02-17T19:05:14.773Z,101156.80
2019-02-17T19:07:39.182Z,101153.59
2019-02-17T19:10:05.182Z,101155.12
2019-02-17T19:12:29.607Z,101152.56
2019-02-17T19:14:55.488Z,101148.38
2019-02-17T19:17:19.993Z,101147.35
2019-02-17T19:19:44.513Z,101095.86
2019-02-17T19:22:08.942Z,101151.34
2019-02-17T19:24:33.425Z,101146.92
2019-02-17T19:26:57.855Z,101152.14
2019-02-17T19:29:22.338Z,101152.37
2019-02-17T19:31:46.851Z,101153.16
2019-02-17T19:34:11.268Z,101151.03
2019-02-17T19:36:35.797Z,101158.48
2019-02-17T19:39:00.223Z,101156.70
2019-02-17T19:41:24.766Z,101150.28
2019-02-17T19:43:49.261Z,101153.44
2019-02-17T19:46:13.787Z,101159.17
2019-02-17T19:48:38.279Z,101169.28
2019-02-17T19:51:02.746Z,101169.45
2019-02-17T19:53:27.248Z,101173.95
2019-02-17T19:55:51.677Z,101170.85
2019-02-17T19:58:16.104Z,101164.87
2019-02-17T20:00:40.569Z,101174.40
2019-02-17T20:03:09.911Z,101172.69
2019-02-17T20:05:36.053Z,101172.91
2019-02-17T20:08:00.546Z,101176.94
2019-02-17T20:10:25.004Z,101176.73
2019-02-17T20:12:49.421Z,101174.98
2019-02-17T20:15:13.910Z,101172.97
2019-02-17T20:17:38.428Z,101168.05
2019-02-17T20:20:02.926Z,101177.29
2019-02-17T20:22:27.380Z,101170.88
2019-02-17T20:24:51.815Z,101178.71
2019-02-17T20:27:16.257Z,101175.96
2019-02-17T20:29:40.670Z,101165.19
2019-02-17T20:32:05.189Z,101174.61
2019-02-17T20:34:29.610Z,101170.88
2019-02-17T20:36:54.117Z,101163.86
2019-02-17T20:39:18.758Z,101163.13
2019-02-17T20:41:43.192Z,101166.89
2019-02-17T20:44:07.808Z,101157.25
2019-02-17T20:46:32.287Z,101153.39
2019-02-17T20:48:56.811Z,101154.12
2019-02-17T20:51:21.314Z,101153.23
2019-02-17T20:53:45.851Z,101152.00
2019-02-17T20:56:10.352Z,101151.11
2019-02-17T20:58:34.786Z,101150.67
2019-02-17T21:00:59.316Z,101147.01
2019-02-17T21:03:23.839Z,101148.36
2019-02-17T21:05:48.263Z,101148.91
2019-02-17T21:08:12.849Z,101152.53
2019-02-17T21:10:37.345Z,101147.92
2019-02-17T21:13:01.945Z,101153.39
2019-02-17T21:15:26.831Z,101156.90
2019-02-17T21:17:51.536Z,101148.71
2019-02-17T21:20:17.774Z,101151.08
2019-02-17T21:22:42.447Z,101157.11
2019-02-17T21:25:12.480Z,101150.05
2019-02-17T21:27:37.161Z,101145.29
2019-02-17T21:30:01.777Z,101142.91
2019-02-17T21:32:27.734Z,101146.88
2019-02-17T21:34:52.240Z,101150.07
2019-02-17T21:37:16.801Z,101149.47
2019-02-17T21:39:41.375Z,101151.55
2019-02-17T21:42:05.864Z,101147.91
2019-02-17T21:44:30.677Z,101147.37
2019-02-17T21:46:55.261Z,101151.59
2019-02-17T21:49:20.260Z,101139.84
2019-02-17T21:51:44.898Z,101141.89
2019-02-17T21:54:09.437Z,101141.09
2019-02-17T21:56:33.967Z,101138.89
2019-02-17T21:58:58.630Z,101146.95
2019-02-17T22:01:23.282Z,101138.81
2019-02-17T22:03:47.955Z,101140.75
2019-02-17T22:06:12.712Z,101138.84
2019-02-17T22:08:37.195Z,101128.05
2019-02-17T22:11:01.754Z,101133.67
2019-02-17T22:13:26.256Z,101135.07
2019-02-17T22:15:50.904Z,101135.34
2019-02-17T22:18:15.456Z,101141.01
2019-02-17T22:20:39.968Z,101139.09
2019-02-17T22:23:04.440Z,101136.59
2019-02-17T22:25:28.865Z,101141.89
2019-02-17T22:27:53.311Z,101135.96
2019-02-17T22:30:17.810Z,101144.45
2019-02-17T22:32:42.251Z,101140.52
2019-02-17T22:35:06.922Z,101142.33
2019-02-17T22:37:31.360Z,101141.77
2019-02-17T22:39:55.754Z,101141.80
2019-02-17T22:42:20.262Z,101146.84
2019-02-17T22:44:44.680Z,101140.30
2019-02-17T22:47:09.095Z,101145.97
2019-02-17T22:49:33.520Z,101154.43
2019-02-17T22:51:58.000Z,101145.19
2019-02-17T22:54:22.441Z,101151.45
2019-02-17T22:56:46.861Z,101152.33
2019-02-17T22:59:11.296Z,101152.46
2019-02-17T23:01:35.780Z,101149.94
2019-02-17T23:04:00.289Z,101148.77
2019-02-17T23:06:24.774Z,101149.02
2019-02-17T23:08:49.301Z,101157.62
2019-02-17T23:11:14.000Z,101153.47
2019-02-17T23:13:38.463Z,101153.27
2019-02-17T23:16:02.844Z,101151.21
2019-02-17T23:18:27.279Z,101153.01
2019-02-17T23:20:51.684Z,101156.91
2019-02-17T23:23:16.099Z,101158.07
2019-02-17T23:25:40.504Z,101157.16
2019-02-17T23:28:04.909Z,101156.73
2019-02-17T23:30:29.390Z,101158.86
2019-02-17T23:32:53.796Z,101153.41
2019-02-17T23:35:18.210Z,101159.09
2019-02-17T23:37:42.609Z,101154.61
2019-02-17T23:40:11.505Z,101155.17
2019-02-17T23:42:35.985Z,101152.91
2019-02-17T23:45:00.417Z,101157.11
2019-02-17T23:47:24.840Z,101151.81
2019-02-17T23:49:49.261Z,101148.67
2019-02-17T23:52:13.665Z,101148.14
2019-02-17T23:54:38.094Z,101149.56
2019-02-17T23:57:02.497Z,101143.80
2019-02-17T23:59:26.902Z,101145.81
